Latest Weather Observations for Camden

IDN60901

Issued at 6:11 am EST Friday 14 June 2024 (issued every 10 minutes, with the page automatically refreshed every 10 minutes)

About weather observations | Map of Sydney area stations | Latest observations for Sydney area | Other Formats
Station Details ID: 068192 Name: CAMDEN AIRPORT AWS Lat: -34.04 Lon: 150.69 Height: 73.9 m
Data from the previous 72 hours. | See also: Recent months at Camden
Date/Time
EST
Temp
°C
App
Temp
°C
Dew
Point
°C
Rel
Hum
%
Delta-T
°C
Wind Press
QNH
hPa
Press
MSL
hPa
Rain since
9am
mm
Dir  Spd
km/h
Gust
km/h
Spd
kts
Gust
kts
14/06:00am 6.2 5.2 5.6 96 0.3 CALM 0 4 0 2 1019.8 1019.9 0.0
14/05:30am 6.3 4.0 5.9 97 0.2 S 7 9 4 5 1019.5 1019.5 0.0
14/05:00am 6.3 5.3 5.6 95 0.3 CALM 0 0 0 0 1019.6 1019.7 0.0
14/04:30am 6.7 4.6 5.8 94 0.4 ESE 6 7 3 4 1019.8 1019.9 0.0
14/04:00am 6.7 4.5 6.1 96 0.3 SE 7 9 4 5 1020.0 1020.1 0.0
14/03:30am 6.3 5.4 6.2 99 0.0 CALM 0 0 0 0 1020.1 1020.2 0.0
14/03:00am 5.7 4.6 5.1 96 0.3 CALM 0 6 0 3 1020.2 1020.3 0.0
14/02:30am 5.6 3.8 5.2 97 0.2 W 4 7 2 4 1020.2 1020.3 0.0
14/02:00am 5.6 4.1 4.9 95 0.3 NW 2 6 1 3 1020.5 1020.6 0.0
14/01:30am 6.4 4.6 5.5 94 0.4 SSE 4 7 2 4 1020.4 1020.5 0.0
14/01:00am 6.7 5.0 6.0 95 0.3 SE 4 7 2 4 1020.5 1020.6 0.0
14/12:30am 6.9 5.2 6.0 94 0.4 ESE 4 9 2 5 1020.4 1020.5 0.0
14/12:00am 7.5 6.3 6.3 92 0.5 SE 2 7 1 4 1020.9 1021.0 0.0
 
Date/Time
EST
Temp
°C
App
Temp
°C
Dew
Point
°C
Rel
Hum
%
Delta-T
°C
Wind Press
QNH
hPa
Press
MSL
hPa
Rain since
9am
mm
Dir  Spd
km/h
Gust
km/h
Spd
kts
Gust
kts
13/11:30pm 7.9 6.3 6.4 90 0.7 ESE 4 9 2 5 1020.8 1020.9 0.0
13/11:00pm 8.2 7.4 6.7 90 0.7 CALM 0 0 0 0 1021.2 1021.3 0.0
13/10:30pm 8.2 6.3 6.7 90 0.7 S 6 7 3 4 1021.3 1021.4 0.0
13/10:00pm 8.0 6.4 6.5 90 0.7 SE 4 7 2 4 1021.4 1021.5 0.0
13/09:30pm 7.8 6.5 6.1 89 0.8 ESE 2 7 1 4 1021.2 1021.3 0.0
13/09:00pm 7.6 6.7 6.2 91 0.6 CALM 0 6 0 3 1021.4 1021.5 0.0
13/08:30pm 8.0 7.1 6.1 88 0.9 CALM 0 0 0 0 1021.5 1021.6 0.0
13/08:00pm 7.4 5.8 6.5 94 0.4 WNW 4 7 2 4 1021.5 1021.6 0.0
13/07:30pm 7.2 6.2 5.5 89 0.8 CALM 0 6 0 3 1021.2 1021.3 0.0
13/07:24pm 7.1 6.0 5.1 87 0.9 CALM 0 0 0 0 1021.1 1021.2 0.0
13/07:02pm 8.2 7.3 6.2 87 0.9 CALM 0 0 0 0 1021.0 1021.1 0.0
13/07:00pm 8.0 7.1 6.0 87 0.9 CALM 0 0 0 0 1021.0 1021.1 0.0
13/06:30pm 8.1 7.1 5.7 85 1.1 CALM 0 0 0 0 1020.9 1021.0 0.0
13/06:00pm 9.1 6.7 4.5 73 2.0 SSE 6 7 3 4 1020.7 1020.8 0.0
13/05:30pm 10.2 8.8 5.6 73 2.1 NNE 2 6 1 3 1020.6 1020.7 0.0
13/05:00pm 11.1 8.7 5.2 67 2.7 WNW 7 9 4 5 1020.3 1020.4 0.0
13/04:30pm 12.1 9.3 5.0 62 3.3 WSW 9 11 5 6 1020.5 1020.6 0.0
13/04:00pm 13.1 9.8 4.8 57 3.8 SW 11 15 6 8 1020.3 1020.4 0.0
13/03:30pm 13.8 10.9 4.4 53 4.3 WSW 9 13 5 7 1019.7 1019.8 0.0
13/03:00pm 13.8 10.5 4.7 54 4.2 WSW 11 17 6 9 1020.1 1020.2 0.0
13/02:30pm 14.2 10.1 4.5 52 4.5 WSW 15 19 8 10 1019.8 1019.9 0.0
13/02:00pm 14.7 10.6 4.1 49 4.9 WSW 15 17 8 9 1019.5 1019.5 0.0
13/01:30pm 14.7 10.6 4.1 49 4.9 WSW 15 22 8 12 1019.5 1019.5 0.0
13/01:00pm 15.1 11.0 4.2 48 5.0 WSW 15 20 8 11 1019.9 1020.0 0.0
13/12:30pm 14.9 10.7 3.7 47 5.1 WSW 15 20 8 11 1019.8 1019.9 0.0
13/12:00pm 14.5 9.9 3.6 48 5.0 WSW 17 22 9 12 1020.5 1020.6 0.0
13/11:30am 14.2 9.5 3.4 48 4.9 W 17 22 9 12 1020.5 1020.6 0.0
13/11:00am 12.8 8.1 3.2 52 4.3 WSW 17 22 9 12 1021.0 1021.1 0.0
13/10:30am 12.3 6.9 2.5 51 4.3 WSW 20 30 11 16 1021.2 1021.3 0.0
13/10:00am 12.2 7.0 2.4 51 4.2 WSW 19 26 10 14 1021.8 1021.9 0.0
13/09:30am 11.8 6.6 2.5 53 4.0 SW 19 28 10 15 1021.4 1021.5 0.0
13/09:00am 10.9 6.0 2.2 55 3.7 SW 17 24 9 13 1021.1 1021.2 0.0
13/08:30am 10.1 4.8 2.0 57 3.4 SW 19 24 10 13 1020.9 1021.0 0.0
13/08:00am 9.1 5.7 1.8 60 3.0 SW 9 13 5 7 1020.9 1021.0 0.0
13/07:30am 9.0 4.8 1.4 59 3.1 SW 13 20 7 11 1020.9 1021.0 0.0
13/07:00am 9.0 4.3 1.2 58 3.2 SW 15 20 8 11 1021.1 1021.2 0.0
13/06:30am 8.9 3.5 1.1 58 3.2 SW 19 28 10 15 1021.0 1021.1 0.0
13/06:00am 8.8 4.1 0.8 57 3.2 SW 15 20 8 11 1020.4 1020.5 0.0
13/05:30am 8.8 4.1 1.0 58 3.2 WSW 15 20 8 11 1019.9 1020.0 0.0
13/05:00am 9.0 4.7 1.0 57 3.3 WSW 13 20 7 11 1019.4 1019.4 0.0
13/04:30am 8.6 3.6 1.1 59 3.1 W 17 20 9 11 1019.2 1019.2 0.0
13/04:00am 8.0 2.9 0.7 60 2.9 WSW 17 26 9 14 1019.3 1019.3 0.0
13/03:30am 8.1 3.4 0.8 60 2.9 W 15 20 8 11 1019.4 1019.4 0.0
13/03:00am 7.4 2.6 0.2 60 2.8 WSW 15 20 8 11 1019.2 1019.2 0.0
13/02:30am 7.2 1.6 0.0 60 2.8 WSW 19 24 10 13 1019.5 1019.5 0.0
13/02:00am 6.8 1.6 -0.2 61 2.7 WSW 17 20 9 11 1019.6 1019.7 0.0
13/01:30am 6.7 2.2 -0.1 62 2.6 WSW 13 15 7 8 1019.5 1019.5 0.0
13/01:00am 6.4 2.7 -0.3 62 2.6 WSW 9 11 5 6 1019.5 1019.5 0.0
13/12:30am 6.3 4.3 -0.4 62 2.6 CALM 0 0 0 0 1019.6 1019.7 0.0
13/12:00am 7.5 4.2 -1.2 54 3.3 SW 6 7 3 4 1019.3 1019.3 0.0
 
Date/Time
EST
Temp
°C
App
Temp
°C
Dew
Point
°C
Rel
Hum
%
Delta-T
°C
Wind Press
QNH
hPa
Press
MSL
hPa
Rain since
9am
mm
Dir  Spd
km/h
Gust
km/h
Spd
kts
Gust
kts
12/11:30pm 9.1 4.8 -1.6 47 4.1 SSW 11 17 6 9 1019.2 1019.2 0.0
12/11:00pm 9.8 4.7 -1.6 45 4.4 SW 15 20 8 11 1019.3 1019.3 0.0
12/10:30pm 9.5 4.0 -1.8 45 4.3 SW 17 20 9 11 1019.0 1019.0 0.0
12/10:00pm 9.3 3.9 -1.4 47 4.1 SW 17 20 9 11 1018.8 1018.8 0.0
12/09:30pm 9.7 5.1 -1.1 47 4.2 SSW 13 17 7 9 1018.6 1018.6 0.0
12/09:00pm 9.8 5.6 -0.7 48 4.1 SSW 11 19 6 10 1018.2 1018.2 0.0
12/08:30pm 9.5 5.9 0.9 55 3.5 S 9 13 5 7 1017.8 1017.8 0.0
12/08:00pm 9.9 6.2 2.3 59 3.2 SSW 11 19 6 10 1017.2 1017.2 0.0
12/07:30pm 9.1 6.9 5.1 76 1.8 SW 6 9 3 5 1016.7 1016.7 0.0
12/07:00pm 10.4 8.0 4.5 67 2.6 SSW 6 9 3 5 1016.1 1016.1 0.0
12/06:30pm 11.2 8.4 5.3 67 2.7 SW 9 15 5 8 1015.7 1015.7 0.0
12/06:00pm 10.8 9.7 4.9 67 2.7 CALM 0 0 0 0 1014.9 1015.0 0.0
12/05:30pm 12.1 9.1 4.1 58 3.6 S 9 11 5 6 1014.3 1014.4 0.0
12/05:00pm 12.7 9.4 4.4 57 3.8 SSW 11 17 6 9 1013.7 1013.8 0.0
12/04:30pm 13.6 10.9 5.7 59 3.7 SSW 9 17 5 9 1013.1 1013.2 0.0
12/04:00pm 14.3 11.0 6.4 59 3.8 S 13 17 7 9 1012.4 1012.5 0.0
12/03:30pm 14.1 10.8 6.5 60 3.7 SSE 13 20 7 11 1011.8 1011.9 0.0
12/03:00pm 14.6 8.6 5.1 53 4.5 SSW 26 39 14 21 1011.3 1011.4 0.0
12/02:30pm 16.6 9.3 2.2 38 6.5 WSW 30 41 16 22 1010.2 1010.3 0.0
12/02:06pm 17.1 10.2 2.7 38 6.6 WSW 28 46 15 25 1009.8 1009.9 0.0
12/02:00pm 17.2 9.6 3.1 39 6.5 WSW 32 44 17 24 1009.6 1009.7 0.0
12/01:30pm 17.2 9.0 2.8 38 6.6 WSW 35 54 19 29 1008.9 1009.0 0.0
12/01:01pm 17.6 8.7 3.1 38 6.7 WSW 39 57 21 31 1008.6 1008.7 0.0
12/01:00pm 17.5 8.2 2.7 37 6.8 WSW 41 57 22 31 1008.6 1008.7 0.0
12/12:30pm 17.5 9.3 2.7 37 6.8 SW 35 57 19 31 1008.5 1008.6 0.0
12/12:00pm 17.5 9.6 4.1 41 6.3 WSW 35 54 19 29 1008.5 1008.6 0.0
12/11:44am 17.0 8.3 4.0 42 6.1 WSW 39 65 21 35 1008.6 1008.7 0.0
12/11:30am 17.0 8.1 5.3 46 5.6 WSW 41 56 22 30 1008.5 1008.6 0.0
12/11:00am 16.6 7.7 4.9 46 5.6 W 41 61 22 33 1008.8 1008.9 0.0
12/10:39am 16.9 9.1 4.9 45 5.7 WSW 35 56 19 30 1009.1 1009.2 0.0
12/10:30am 17.2 10.0 5.8 47 5.6 W 33 48 18 26 1009.0 1009.1 0.0
12/10:13am 17.0 10.6 5.3 46 5.6 W 28 46 15 25 1009.2 1009.3 0.0
12/10:00am 16.9 11.3 5.5 47 5.5 W 24 37 13 20 1009.2 1009.3 0.0
12/09:30am 16.9 13.4 5.5 47 5.5 WSW 13 24 7 13 1009.2 1009.3 0.0
12/09:00am 16.3 11.3 4.7 46 5.5 WSW 20 39 11 21 1008.8 1008.9 0.0
12/08:30am 15.7 10.3 4.4 47 5.3 WSW 22 39 12 21 1008.7 1008.8 0.0
12/08:28am 15.6 10.8 4.6 48 5.2 WSW 19 39 10 21 1008.6 1008.7 0.0
12/08:00am 12.9 10.7 5.1 59 3.6 N 6 13 3 7 1008.1 1008.1 0.0
12/07:30am 10.5 7.7 5.3 70 2.4 WNW 9 13 5 7 1008.6 1008.7 0.0
12/07:00am 8.9 6.2 5.6 80 1.5 NNW 9 11 5 6 1008.5 1008.6 0.0
12/06:50am 8.6 6.1 4.8 77 1.7 NW 7 13 4 7 1008.6 1008.7 0.0
12/06:30am 13.9 10.3 4.8 54 4.2 WSW 13 19 7 10 1008.8 1008.9 0.0
12/06:00am 10.9 7.7 5.0 67 2.7 SW 11 15 6 8 1008.6 1008.7 0.0
12/05:30am 11.7 10.6 5.3 65 3.0 CALM 0 6 0 3 1008.2 1008.2 0.0
12/05:00am 12.6 10.2 5.3 61 3.4 W 7 15 4 8 1008.0 1008.0 0.0
12/04:30am 13.7 11.9 5.6 58 3.8 WSW 4 11 2 6 1008.2 1008.2 0.0
12/04:00am 14.1 10.8 6.5 60 3.7 W 13 22 7 12 1008.3 1008.3 0.0
12/03:30am 13.1 11.1 7.1 67 2.9 E 7 9 4 5 1008.9 1009.0 0.0
12/03:00am 11.3 9.8 6.6 73 2.2 NNE 4 9 2 5 1009.2 1009.3 0.0
12/02:30am 12.8 11.7 6.8 67 2.9 WNW 2 9 1 5 1009.4 1009.5 0.0
12/02:00am 11.5 9.7 7.2 75 2.1 NNE 6 11 3 6 1009.6 1009.7 0.0
12/01:30am 14.2 11.7 6.6 60 3.7 SW 9 11 5 6 1010.0 1010.1 0.0
12/01:00am 14.0 11.1 6.4 60 3.7 SW 11 15 6 8 1010.2 1010.3 0.0
12/12:30am 14.9 11.3 6.7 58 4.0 SW 15 20 8 11 1010.5 1010.6 0.0
12/12:00am 15.4 10.6 7.2 58 4.1 W 22 33 12 18 1010.3 1010.4 0.0
 
Date/Time
EST
Temp
°C
App
Temp
°C
Dew
Point
°C
Rel
Hum
%
Delta-T
°C
Wind Press
QNH
hPa
Press
MSL
hPa
Rain since
9am
mm
Dir  Spd
km/h
Gust
km/h
Spd
kts
Gust
kts
11/11:30pm 14.1 11.2 6.5 60 3.7 NW 11 22 6 12 1010.6 1010.7 0.0
11/11:00pm 11.3 9.2 6.0 70 2.5 N 6 9 3 5 1010.9 1011.0 0.0
11/10:47pm 11.7 9.8 6.6 71 2.4 NE 6 11 3 6 1010.8 1010.9 0.0
11/10:30pm 9.6 7.6 7.2 85 1.1 NNE 7 15 4 8 1011.0 1011.1 0.0
11/10:28pm 8.8 6.3 6.6 86 1.0 NNE 9 15 5 8 1011.0 1011.1 0.0
11/10:00pm 8.8 6.7 6.6 86 1.0 WSW 7 13 4 7 1011.7 1011.8 0.0
11/09:30pm 9.5 7.1 6.8 83 1.3 S 9 11 5 6 1011.7 1011.8 0.0
11/09:00pm 12.0 9.4 6.1 67 2.8 NW 9 11 5 6 1011.3 1011.4 0.0
11/08:30pm 12.8 9.6 6.8 67 2.9 NNW 13 17 7 9 1011.3 1011.4 0.0
11/08:00pm 11.1 9.5 8.1 82 1.5 NNW 6 9 3 5 1011.3 1011.4 0.0
11/07:30pm 9.1 7.1 8.5 96 0.3 NNW 9 15 5 8 1012.3 1012.4 0.0
11/07:00pm 8.7 6.9 7.9 95 0.4 SSE 7 11 4 6 1013.6 1013.7 0.0
11/06:30pm 8.7 7.0 7.6 93 0.5 SSE 6 7 3 4 1013.7 1013.8 0.0
11/06:00pm 9.2 8.2 7.5 89 0.8 N 2 7 1 4 1013.6 1013.7 0.0
11/05:30pm 10.0 8.3 8.4 90 0.8 NNW 7 9 4 5 1014.1 1014.2 0.0
11/05:00pm 11.0 9.3 8.2 83 1.4 NNW 7 9 4 5 1013.8 1013.9 0.0
11/04:30pm 12.7 11.2 8.6 76 2.1 NW 6 7 3 4 1014.2 1014.3 0.0
11/04:00pm 13.0 12.2 8.1 72 2.4 NNW 2 7 1 4 1014.2 1014.3 0.0
11/03:30pm 12.4 11.7 8.5 77 1.9 SW 2 9 1 5 1014.8 1014.9 0.0
11/03:00pm 12.3 11.9 8.4 77 1.9 CALM 0 6 0 3 1014.8 1014.9 0.0
11/02:30pm 12.4 12.0 8.3 76 2.0 CALM 0 6 0 3 1014.1 1014.2 0.0
11/02:00pm 12.1 11.6 8.0 76 2.0 CALM 0 0 0 0 1014.9 1015.0 0.0
11/01:30pm 11.9 11.5 8.2 78 1.8 CALM 0 0 0 0 1015.7 1015.7 0.0
11/01:00pm 11.6 10.7 7.7 77 1.9 WSW 2 6 1 3 1016.1 1016.1 0.0
11/12:30pm 11.6 9.9 7.5 76 2.0 WSW 6 7 3 4 1016.6 1016.6 0.0
11/12:00pm 11.9 10.9 7.2 73 2.3 SW 2 6 1 3 1017.3 1017.3 0.0
11/11:30am 12.0 10.2 7.3 73 2.3 ENE 6 9 3 5 1017.6 1017.6 0.0
11/11:00am 10.4 9.6 8.2 86 1.1 NNE 2 9 1 5 1018.5 1018.5 0.0
11/10:30am 8.3 6.5 7.1 92 0.6 WSW 6 9 3 5 1019.4 1019.4 0.0
11/10:00am 7.6 6.9 6.9 95 0.3 CALM 0 6 0 3 1019.8 1019.9 0.0
11/09:30am 6.6 5.8 6.5 99 0.0 CALM 0 6 0 3 1020.5 1020.6 0.0
11/09:00am 5.8 4.1 5.7 99 0.0 S 4 6 2 3 1020.6 1020.7 0.0
11/08:30am 4.4 3.1 4.3 99 0.0 CALM 0 0 0 0 1020.5 1020.6 0.0
11/08:06am 3.7 2.3 3.6 99 0.0 CALM 0 0 0 0 1020.8 1020.9 0.0
11/08:00am 3.4 2.0 3.3 99 0.0 CALM 0 0 0 0 1021.0 1021.1 0.0
11/07:51am 3.1 1.6 3.0 99 0.0 CALM 0 0 0 0 1020.8 1020.9 0.0
11/07:37am 2.6 1.0 2.5 99 0.0 CALM 0 0 0 0 1020.7 1020.8 0.0
11/07:33am 2.6 1.0 2.5 99 0.0 CALM 0 0 0 0 1020.7 1020.8 0.0
11/07:30am 2.6 1.0 2.5 99 0.0 CALM 0 0 0 0 1020.7 1020.8 0.0
11/07:00am 2.5 0.9 2.4 99 0.0 CALM 0 0 0 0 1021.3 1021.4 0.0
11/06:30am 2.7 0.0 2.6 99 0.0 SSW 6 7 3 4 1021.4 1021.5 0.0

Latest Capital City Observations: Canberra | Sydney | Melbourne | Brisbane | Adelaide | Perth | Hobart | Darwin

Other formats

Comma delimited format used in spreadsheet applications
http://www.bom.gov.au/fwo/IDN60901/IDN60901.94755.axf

JavaScript Object Notation format (JSON) in row-major order
http://www.bom.gov.au/fwo/IDN60901/IDN60901.94755.json

Data quality

Most of these data are generated automatically and are frequently updated. Quality checks on data are not normally performed. It is possible for incorrect values to appear. Refer to information at About Latest Weather Observations and please check the disclaimer before using these data.